WXM80 ListenWXM80 Stop

You find our weather info also at:

UK Metoffice

WeatherCloud

Weather Underground

Northeastern Weather Network

AWEKAS

Citizen Weather Observer Program (CWOP)

HAMweather, WeatherForYou, PWS Weather


Weather Underground History page Text

Daily Summary for March 1, 2018 Units:  Both    English   Metric
« Previous Day
Next Day »
Daily Weekly Monthly Yearly Custom
  High: Low: Average:
Temperature: 55.4 °F /  13 °C 41.7 °F /  5.4 °C 48.4 °F /  9.1 °C
Dew Point: 46.4 °F /  8 °C 38.3 °F /  3.5 °C 41.7 °F /  5.4 °C
Humidity: 94 % 66 % 78 %
Wind Speed: 11.7 mph /  18.8 km/h - 2.1 mph /  3.4 km/h
Wind Gust: 15.0 mph /  24.1 km/h - -
Wind:- - ESE
Pressure: 29.62 in /  1002.9 hPa 29.30 in /  992.1 hPa -
Precipitation: 0.08 in /  2.03 mm    
Historical Graphs
 
 
Tabular Data for March 1, 2018
Time Temperature Dew Point Pressure Wind Wind Speed Wind Gust Humidity Rainfall Rate (Hourly)
00:02 50.7 °F /  10.4 °C 42.0 °F /  5.6 °C 29.61 in /  1002.6 hPa WSW 2.1 mph /  3.4 km/h 3.5 mph /  5.6 km/h 72 % 0.00 in /  0 mm
00:07 50.6 °F /  10.3 °C 42.3 °F /  5.7 °C 29.61 in /  1002.6 hPa WSW 1.5 mph /  2.4 km/h 2.3 mph /  3.7 km/h 73 % 0.00 in /  0 mm
00:12 50.5 °F /  10.3 °C 41.8 °F /  5.4 °C 29.61 in /  1002.6 hPa SW 2.2 mph /  3.5 km/h 6.9 mph /  11.1 km/h 72 % 0.00 in /  0 mm
00:17 50.5 °F /  10.3 °C 41.8 °F /  5.4 °C 29.61 in /  1002.6 hPa SSW 1.5 mph /  2.4 km/h 5.8 mph /  9.3 km/h 72 % 0.00 in /  0 mm
00:22 50.4 °F /  10.2 °C 41.7 °F /  5.4 °C 29.61 in /  1002.6 hPa South 2.3 mph /  3.7 km/h 5.8 mph /  9.3 km/h 72 % 0.00 in /  0 mm
00:27 50.3 °F /  10.2 °C 41.6 °F /  5.3 °C 29.61 in /  1002.6 hPa SW 1.0 mph /  1.6 km/h 3.5 mph /  5.6 km/h 72 % 0.00 in /  0 mm
00:32 50.3 °F /  10.2 °C 41.6 °F /  5.3 °C 29.61 in /  1002.6 hPa SW 0.6 mph /  1 km/h 3.5 mph /  5.6 km/h 72 % 0.00 in /  0 mm
00:37 50.3 °F /  10.2 °C 41.6 °F /  5.3 °C 29.61 in /  1002.6 hPa SW 2.4 mph /  3.9 km/h 4.0 mph /  6.4 km/h 72 % 0.00 in /  0 mm
00:42 50.3 °F /  10.2 °C 41.6 °F /  5.3 °C 29.61 in /  1002.6 hPa SW 1.9 mph /  3.1 km/h 3.5 mph /  5.6 km/h 72 % 0.00 in /  0 mm
00:47 50.3 °F /  10.2 °C 41.6 °F /  5.3 °C 29.61 in /  1002.6 hPa SW 1.5 mph /  2.4 km/h 3.5 mph /  5.6 km/h 72 % 0.00 in /  0 mm
00:52 50.3 °F /  10.2 °C 41.6 °F /  5.3 °C 29.61 in /  1002.6 hPa SW 1.6 mph /  2.6 km/h 4.6 mph /  7.4 km/h 72 % 0.00 in /  0 mm
00:57 50.3 °F /  10.2 °C 41.6 °F /  5.3 °C 29.61 in /  1002.6 hPa SW 0.3 mph /  0.5 km/h 3.5 mph /  5.6 km/h 72 % 0.00 in /  0 mm
01:02 50.3 °F /  10.2 °C 41.6 °F /  5.3 °C 29.61 in /  1002.6 hPa SW 2.9 mph /  4.7 km/h 3.5 mph /  5.6 km/h 72 % 0.00 in /  0 mm
01:07 50.3 °F /  10.2 °C 41.6 °F /  5.3 °C 29.61 in /  1002.6 hPa SW 1.7 mph /  2.7 km/h 3.5 mph /  5.6 km/h 72 % 0.00 in /  0 mm
01:13 50.3 °F /  10.2 °C 41.6 °F /  5.3 °C 29.61 in /  1002.6 hPa SW 0.6 mph /  1 km/h 3.5 mph /  5.6 km/h 72 % 0.00 in /  0 mm
01:18 50.4 °F /  10.2 °C 41.7 °F /  5.4 °C 29.61 in /  1002.6 hPa Calm     72 % 0.00 in /  0 mm
01:23 50.3 °F /  10.2 °C 41.6 °F /  5.3 °C 29.61 in /  1002.6 hPa Calm     72 % 0.00 in /  0 mm
01:28 50.3 °F /  10.2 °C 41.6 °F /  5.3 °C 29.62 in /  1002.9 hPa Calm     72 % 0.00 in /  0 mm
01:33 50.3 °F /  10.2 °C 41.6 °F /  5.3 °C 29.61 in /  1002.6 hPa Calm     72 % 0.00 in /  0 mm
01:38 50.2 °F /  10.1 °C 41.5 °F /  5.3 °C 29.62 in /  1002.9 hPa Calm     72 % 0.00 in /  0 mm
01:43 50.2 °F /  10.1 °C 41.5 °F /  5.3 °C 29.62 in /  1002.9 hPa Calm     72 % 0.00 in /  0 mm
01:48 50.1 °F /  10.1 °C 41.4 °F /  5.2 °C 29.62 in /  1002.9 hPa South 0.6 mph /  1 km/h 2.0 mph /  3.2 km/h 72 % 0.00 in /  0 mm
01:53 50.0 °F /  10 °C 41.3 °F /  5.2 °C 29.61 in /  1002.6 hPa South 0.1 mph /  0.2 km/h 1.2 mph /  1.9 km/h 72 % 0.00 in /  0 mm
01:58 50.0 °F /  10 °C 41.3 °F /  5.2 °C 29.61 in /  1002.6 hPa SSW 1.2 mph /  1.9 km/h 2.3 mph /  3.7 km/h 72 % 0.00 in /  0 mm
02:03 49.9 °F /  9.9 °C 41.6 °F /  5.3 °C 29.60 in /  1002.3 hPa SW 1.6 mph /  2.6 km/h 2.3 mph /  3.7 km/h 73 % 0.00 in /  0 mm
02:09 49.8 °F /  9.9 °C 41.5 °F /  5.3 °C 29.60 in /  1002.3 hPa SSW 0.3 mph /  0.5 km/h 2.3 mph /  3.7 km/h 73 % 0.00 in /  0 mm
02:14 49.7 °F /  9.8 °C 41.4 °F /  5.2 °C 29.60 in /  1002.3 hPa SW 0.2 mph /  0.3 km/h 2.0 mph /  3.2 km/h 73 % 0.00 in /  0 mm
02:19 49.7 °F /  9.8 °C 41.4 °F /  5.2 °C 29.60 in /  1002.3 hPa SW 1.5 mph /  2.4 km/h 3.5 mph /  5.6 km/h 73 % 0.00 in /  0 mm
02:24 49.7 °F /  9.8 °C 41.4 °F /  5.2 °C 29.60 in /  1002.3 hPa SW 1.4 mph /  2.3 km/h 3.5 mph /  5.6 km/h 73 % 0.00 in /  0 mm
02:29 49.7 °F /  9.8 °C 41.4 °F /  5.2 °C 29.59 in /  1001.9 hPa SW 1.3 mph /  2.1 km/h 2.3 mph /  3.7 km/h 73 % 0.00 in /  0 mm
02:34 49.8 °F /  9.9 °C 41.5 °F /  5.3 °C 29.59 in /  1001.9 hPa SW 0.5 mph /  0.8 km/h 2.3 mph /  3.7 km/h 73 % 0.00 in /  0 mm
02:39 49.8 °F /  9.9 °C 41.5 °F /  5.3 °C 29.59 in /  1001.9 hPa SSW 1.4 mph /  2.3 km/h 3.5 mph /  5.6 km/h 73 % 0.00 in /  0 mm
02:44 49.8 °F /  9.9 °C 41.5 °F /  5.3 °C 29.59 in /  1001.9 hPa WSW 1.6 mph /  2.6 km/h 3.5 mph /  5.6 km/h 73 % 0.00 in /  0 mm
02:49 49.8 °F /  9.9 °C 41.5 °F /  5.3 °C 29.59 in /  1001.9 hPa SSW 3.5 mph /  5.6 km/h 4.6 mph /  7.4 km/h 73 % 0.00 in /  0 mm
02:54 49.9 °F /  9.9 °C 41.2 °F /  5.1 °C 29.59 in /  1001.9 hPa SSW 1.4 mph /  2.3 km/h 3.5 mph /  5.6 km/h 72 % 0.00 in /  0 mm
02:59 49.8 °F /  9.9 °C 41.1 °F /  5.1 °C 29.59 in /  1001.9 hPa SW 2.6 mph /  4.2 km/h 5.0 mph /  8 km/h 72 % 0.00 in /  0 mm
03:04 49.8 °F /  9.9 °C 41.1 °F /  5.1 °C 29.58 in /  1001.6 hPa SW 4.2 mph /  6.8 km/h 4.2 mph /  6.8 km/h 72 % 0.00 in /  0 mm
03:10 49.8 °F /  9.9 °C 41.1 °F /  5.1 °C 29.58 in /  1001.6 hPa SW 2.0 mph /  3.2 km/h 3.5 mph /  5.6 km/h 72 % 0.00 in /  0 mm
03:15 49.7 °F /  9.8 °C 41.0 °F /  5 °C 29.58 in /  1001.6 hPa SW 2.3 mph /  3.7 km/h 2.3 mph /  3.7 km/h 72 % 0.00 in /  0 mm
03:20 49.7 °F /  9.8 °C 41.0 °F /  5 °C 29.58 in /  1001.6 hPa SW 1.7 mph /  2.7 km/h 4.6 mph /  7.4 km/h 72 % 0.00 in /  0 mm
03:21 49.7 °F /  9.8 °C 41.0 °F /  5 °C 29.58 in /  1001.6 hPa SSW 2.4 mph /  3.9 km/h 4.6 mph /  7.4 km/h 72 % 0.00 in /  0 mm
03:26 49.6 °F /  9.8 °C 40.9 °F /  4.9 °C 29.58 in /  1001.6 hPa SSW 1.6 mph /  2.6 km/h 3.5 mph /  5.6 km/h 72 % 0.00 in /  0 mm
03:31 49.5 °F /  9.7 °C 40.8 °F /  4.9 °C 29.58 in /  1001.6 hPa SW 2.4 mph /  3.9 km/h 4.6 mph /  7.4 km/h 72 % 0.00 in /  0 mm
03:32 49.5 °F /  9.7 °C 40.8 °F /  4.9 °C 29.58 in /  1001.6 hPa SW 0.7 mph /  1.1 km/h 2.3 mph /  3.7 km/h 72 % 0.00 in /  0 mm
03:38 49.4 °F /  9.7 °C 40.7 °F /  4.8 °C 29.58 in /  1001.6 hPa SW 1.0 mph /  1.6 km/h 2.3 mph /  3.7 km/h 72 % 0.00 in /  0 mm
03:43 49.3 °F /  9.6 °C 41.0 °F /  5 °C 29.58 in /  1001.6 hPa SW 0.2 mph /  0.3 km/h   73 % 0.00 in /  0 mm
03:48 49.2 °F /  9.6 °C 40.9 °F /  4.9 °C 29.58 in /  1001.6 hPa SW 0.9 mph /  1.4 km/h 3.0 mph /  4.8 km/h 73 % 0.00 in /  0 mm
03:53 49.1 °F /  9.5 °C 40.8 °F /  4.9 °C 29.58 in /  1001.6 hPa SSW 2.5 mph /  4 km/h 3.5 mph /  5.6 km/h 73 % 0.00 in /  0 mm
03:58 48.9 °F /  9.4 °C 40.6 °F /  4.8 °C 29.58 in /  1001.6 hPa SSW 0.7 mph /  1.1 km/h 2.3 mph /  3.7 km/h 73 % 0.00 in /  0 mm
04:03 48.7 °F /  9.3 °C 40.4 °F /  4.7 °C 29.58 in /  1001.6 hPa Calm   1.2 mph /  1.9 km/h 73 % 0.00 in /  0 mm
04:08 48.5 °F /  9.2 °C 40.2 °F /  4.6 °C 29.58 in /  1001.6 hPa Calm     73 % 0.00 in /  0 mm
04:13 48.3 °F /  9.1 °C 40.4 °F /  4.7 °C 29.58 in /  1001.6 hPa Calm     74 % 0.00 in /  0 mm
04:18 48.1 °F /  8.9 °C 40.2 °F /  4.6 °C 29.58 in /  1001.6 hPa Calm     74 % 0.00 in /  0 mm
04:22 47.9 °F /  8.8 °C 40.0 °F /  4.4 °C 29.58 in /  1001.6 hPa SSW 0.8 mph /  1.3 km/h 2.3 mph /  3.7 km/h 74 % 0.00 in /  0 mm
04:27 47.7 °F /  8.7 °C 39.8 °F /  4.3 °C 29.58 in /  1001.6 hPa Calm     74 % 0.00 in /  0 mm
04:32 47.5 °F /  8.6 °C 40.0 °F /  4.4 °C 29.58 in /  1001.6 hPa Calm     75 % 0.00 in /  0 mm
04:37 47.2 °F /  8.4 °C 40.0 °F /  4.4 °C 29.58 in /  1001.6 hPa SSW 1.0 mph /  1.6 km/h 3.5 mph /  5.6 km/h 76 % 0.00 in /  0 mm
04:39 47.1 °F /  8.4 °C 39.9 °F /  4.4 °C 29.58 in /  1001.6 hPa SSW 0.4 mph /  0.6 km/h   76 % 0.00 in /  0 mm
04:42 47.0 °F /  8.3 °C 39.8 °F /  4.3 °C 29.58 in /  1001.6 hPa SSW 0.2 mph /  0.3 km/h 1.2 mph /  1.9 km/h 76 % 0.00 in /  0 mm
04:47 46.7 °F /  8.2 °C 39.9 °F /  4.4 °C 29.58 in /  1001.6 hPa SSW 0.1 mph /  0.2 km/h 1.2 mph /  1.9 km/h 77 % 0.00 in /  0 mm
04:52 46.5 °F /  8.1 °C 39.7 °F /  4.3 °C 29.58 in /  1001.6 hPa Calm     77 % 0.00 in /  0 mm
04:57 46.3 °F /  7.9 °C 39.8 °F /  4.3 °C 29.58 in /  1001.6 hPa Calm   3.5 mph /  5.6 km/h 78 % 0.00 in /  0 mm
05:02 46.1 °F /  7.8 °C 39.6 °F /  4.2 °C 29.58 in /  1001.6 hPa Calm     78 % 0.00 in /  0 mm
05:07 46.0 °F /  7.8 °C 39.5 °F /  4.2 °C 29.58 in /  1001.6 hPa Calm     78 % 0.00 in /  0 mm
05:12 45.9 °F /  7.7 °C 39.8 °F /  4.3 °C 29.58 in /  1001.6 hPa Calm     79 % 0.00 in /  0 mm
05:18 45.8 °F /  7.7 °C 39.7 °F /  4.3 °C 29.58 in /  1001.6 hPa Calm   1.2 mph /  1.9 km/h 79 % 0.00 in /  0 mm
05:23 45.7 °F /  7.6 °C 39.6 °F /  4.2 °C 29.58 in /  1001.6 hPa SW 1.8 mph /  2.9 km/h 2.3 mph /  3.7 km/h 79 % 0.00 in /  0 mm
05:28 45.6 °F /  7.6 °C 39.5 °F /  4.2 °C 29.58 in /  1001.6 hPa Calm     79 % 0.00 in /  0 mm
05:33 45.5 °F /  7.5 °C 39.7 °F /  4.3 °C 29.58 in /  1001.6 hPa Calm     80 % 0.00 in /  0 mm
05:38 45.5 °F /  7.5 °C 39.7 °F /  4.3 °C 29.58 in /  1001.6 hPa Calm     80 % 0.00 in /  0 mm
05:43 45.4 °F /  7.4 °C 39.6 °F /  4.2 °C 29.59 in /  1001.9 hPa Calm     80 % 0.00 in /  0 mm
05:48 45.3 °F /  7.4 °C 39.5 °F /  4.2 °C 29.59 in /  1001.9 hPa SW 1.0 mph /  1.6 km/h 3.5 mph /  5.6 km/h 80 % 0.00 in /  0 mm
05:53 45.2 °F /  7.3 °C 39.7 °F /  4.3 °C 29.59 in /  1001.9 hPa SW 1.1 mph /  1.8 km/h 2.3 mph /  3.7 km/h 81 % 0.00 in /  0 mm
05:58 45.1 °F /  7.3 °C 39.6 °F /  4.2 °C 29.59 in /  1001.9 hPa SW 1.3 mph /  2.1 km/h 2.3 mph /  3.7 km/h 81 % 0.00 in /  0 mm
06:03 45.0 °F /  7.2 °C 39.5 °F /  4.2 °C 29.60 in /  1002.3 hPa SW 0.8 mph /  1.3 km/h 3.5 mph /  5.6 km/h 81 % 0.00 in /  0 mm
06:08 44.9 °F /  7.2 °C 39.4 °F /  4.1 °C 29.60 in /  1002.3 hPa Calm     81 % 0.00 in /  0 mm
06:13 44.9 °F /  7.2 °C 39.7 °F /  4.3 °C 29.60 in /  1002.3 hPa Calm     82 % 0.00 in /  0 mm
06:15 44.8 °F /  7.1 °C 39.6 °F /  4.2 °C 29.60 in /  1002.3 hPa Calm     82 % 0.00 in /  0 mm
06:20 44.8 °F /  7.1 °C 39.6 °F /  4.2 °C 29.60 in /  1002.3 hPa Calm   1.2 mph /  1.9 km/h 82 % 0.00 in /  0 mm
06:25 44.7 °F /  7.1 °C 39.5 °F /  4.2 °C 29.60 in /  1002.3 hPa SW 0.2 mph /  0.3 km/h 2.0 mph /  3.2 km/h 82 % 0.00 in /  0 mm
06:30 44.6 °F /  7 °C 39.8 °F /  4.3 °C 29.60 in /  1002.3 hPa SW 1.7 mph /  2.7 km/h 3.5 mph /  5.6 km/h 83 % 0.00 in /  0 mm
06:35 44.5 °F /  6.9 °C 39.7 °F /  4.3 °C 29.60 in /  1002.3 hPa SW 1.0 mph /  1.6 km/h 3.0 mph /  4.8 km/h 83 % 0.00 in /  0 mm
06:40 44.5 °F /  6.9 °C 39.7 °F /  4.3 °C 29.60 in /  1002.3 hPa Calm   1.2 mph /  1.9 km/h 83 % 0.00 in /  0 mm
06:45 44.4 °F /  6.9 °C 39.6 °F /  4.2 °C 29.60 in /  1002.3 hPa Calm     83 % 0.00 in /  0 mm
06:50 44.2 °F /  6.8 °C 39.1 °F /  3.9 °C 29.60 in /  1002.3 hPa Calm     82 % 0.00 in /  0 mm
06:55 44.1 °F /  6.7 °C 39.0 °F /  3.9 °C 29.60 in /  1002.3 hPa Calm     82 % 0.00 in /  0 mm
07:00 43.9 °F /  6.6 °C 38.8 °F /  3.8 °C 29.60 in /  1002.3 hPa Calm     82 % 0.00 in /  0 mm
07:05 43.8 °F /  6.6 °C 38.3 °F /  3.5 °C 29.60 in /  1002.3 hPa Calm     81 % 0.00 in /  0 mm
07:10 43.7 °F /  6.5 °C 38.6 °F /  3.7 °C 29.60 in /  1002.3 hPa Calm     82 % 0.00 in /  0 mm
07:15 43.5 °F /  6.4 °C 38.4 °F /  3.6 °C 29.59 in /  1001.9 hPa Calm     82 % 0.00 in /  0 mm
07:20 43.4 °F /  6.3 °C 38.6 °F /  3.7 °C 29.59 in /  1001.9 hPa Calm     83 % 0.00 in /  0 mm
07:25 43.3 °F /  6.3 °C 38.5 °F /  3.6 °C 29.60 in /  1002.3 hPa Calm     83 % 0.00 in /  0 mm
07:30 43.4 °F /  6.3 °C 39.2 °F /  4 °C 29.60 in /  1002.3 hPa Calm     85 % 0.00 in /  0 mm
07:36 43.5 °F /  6.4 °C 39.6 °F /  4.2 °C 29.60 in /  1002.3 hPa Calm     86 % 0.00 in /  0 mm
07:41 43.6 °F /  6.4 °C 39.7 °F /  4.3 °C 29.62 in /  1002.9 hPa Calm   1.0 mph /  1.6 km/h 86 % 0.00 in /  0 mm
07:46 43.8 °F /  6.6 °C 39.9 °F /  4.4 °C 29.62 in /  1002.9 hPa SW 0.2 mph /  0.3 km/h 1.2 mph /  1.9 km/h 86 % 0.00 in /  0 mm
07:51 44.0 °F /  6.7 °C 40.4 °F /  4.7 °C 29.62 in /  1002.9 hPa Calm     87 % 0.00 in /  0 mm
07:56 44.3 °F /  6.8 °C 40.7 °F /  4.8 °C 29.61 in /  1002.6 hPa Calm     87 % 0.00 in /  0 mm
08:01 44.5 °F /  6.9 °C 40.6 °F /  4.8 °C 29.61 in /  1002.6 hPa Calm     86 % 0.00 in /  0 mm
08:06 44.6 °F /  7 °C 40.7 °F /  4.8 °C 29.61 in /  1002.6 hPa Calm     86 % 0.00 in /  0 mm
08:11 44.9 °F /  7.2 °C 41.3 °F /  5.2 °C 29.60 in /  1002.3 hPa Calm     87 % 0.00 in /  0 mm
08:16 45.1 °F /  7.3 °C 41.5 °F /  5.3 °C 29.60 in /  1002.3 hPa Calm     87 % 0.00 in /  0 mm
08:21 45.4 °F /  7.4 °C 41.8 °F /  5.4 °C 29.60 in /  1002.3 hPa Calm     87 % 0.00 in /  0 mm
08:26 45.6 °F /  7.6 °C 42.0 °F /  5.6 °C 29.60 in /  1002.3 hPa Calm     87 % 0.00 in /  0 mm
08:31 45.8 °F /  7.7 °C 41.9 °F /  5.5 °C 29.59 in /  1001.9 hPa SW 0.1 mph /  0.2 km/h 1.2 mph /  1.9 km/h 86 % 0.00 in /  0 mm
08:36 46.0 °F /  7.8 °C 41.7 °F /  5.4 °C 29.60 in /  1002.3 hPa Calm     85 % 0.00 in /  0 mm
08:41 46.1 °F /  7.8 °C 41.8 °F /  5.4 °C 29.59 in /  1001.9 hPa Calm     85 % 0.00 in /  0 mm
08:46 46.3 °F /  7.9 °C 42.0 °F /  5.6 °C 29.59 in /  1001.9 hPa Calm     85 % 0.00 in /  0 mm
08:51 46.4 °F /  8 °C 41.8 °F /  5.4 °C 29.58 in /  1001.6 hPa Calm     84 % 0.00 in /  0 mm
08:56 46.7 °F /  8.2 °C 42.4 °F /  5.8 °C 29.59 in /  1001.9 hPa Calm     85 % 0.00 in /  0 mm
09:01 46.9 °F /  8.3 °C 42.6 °F /  5.9 °C 29.59 in /  1001.9 hPa SW 0.2 mph /  0.3 km/h 1.2 mph /  1.9 km/h 85 % 0.00 in /  0 mm
09:06 47.2 °F /  8.4 °C 42.9 °F /  6.1 °C 29.59 in /  1001.9 hPa Calm     85 % 0.00 in /  0 mm
09:11 47.3 °F /  8.5 °C 42.7 °F /  5.9 °C 29.59 in /  1001.9 hPa Calm     84 % 0.00 in /  0 mm
09:17 47.5 °F /  8.6 °C 42.9 °F /  6.1 °C 29.59 in /  1001.9 hPa Calm     84 % 0.00 in /  0 mm
09:22 47.8 °F /  8.8 °C 42.9 °F /  6.1 °C 29.59 in /  1001.9 hPa Calm     83 % 0.00 in /  0 mm
09:27 48.0 °F /  8.9 °C 43.1 °F /  6.2 °C 29.59 in /  1001.9 hPa Calm     83 % 0.00 in /  0 mm
09:32 48.2 °F /  9 °C 43.0 °F /  6.1 °C 29.60 in /  1002.3 hPa Calm   2.3 mph /  3.7 km/h 82 % 0.00 in /  0 mm
09:37 48.4 °F /  9.1 °C 43.2 °F /  6.2 °C 29.60 in /  1002.3 hPa Calm   1.2 mph /  1.9 km/h 82 % 0.00 in /  0 mm
09:38 48.5 °F /  9.2 °C 42.9 °F /  6.1 °C 29.60 in /  1002.3 hPa Calm     81 % 0.00 in /  0 mm
09:43 48.7 °F /  9.3 °C 42.8 °F /  6 °C 29.60 in /  1002.3 hPa Calm     80 % 0.00 in /  0 mm
09:48 48.7 °F /  9.3 °C 42.5 °F /  5.8 °C 29.60 in /  1002.3 hPa Calm   1.2 mph /  1.9 km/h 79 % 0.00 in /  0 mm
09:53 48.7 °F /  9.3 °C 42.1 °F /  5.6 °C 29.60 in /  1002.3 hPa Calm     78 % 0.00 in /  0 mm
09:58 48.9 °F /  9.4 °C 43.0 °F /  6.1 °C 29.60 in /  1002.3 hPa Calm     80 % 0.00 in /  0 mm
10:03 49.1 °F /  9.5 °C 42.5 °F /  5.8 °C 29.60 in /  1002.3 hPa East 1.3 mph /  2.1 km/h 3.5 mph /  5.6 km/h 78 % 0.00 in /  0 mm
10:08 49.0 °F /  9.4 °C 42.4 °F /  5.8 °C 29.60 in /  1002.3 hPa East 0.6 mph /  1 km/h 1.2 mph /  1.9 km/h 78 % 0.00 in /  0 mm
10:14 49.0 °F /  9.4 °C 42.1 °F /  5.6 °C 29.60 in /  1002.3 hPa Calm     77 % 0.00 in /  0 mm
10:19 49.0 °F /  9.4 °C 42.1 °F /  5.6 °C 29.60 in /  1002.3 hPa East 1.6 mph /  2.6 km/h 3.5 mph /  5.6 km/h 77 % 0.00 in /  0 mm
10:24 48.9 °F /  9.4 °C 42.0 °F /  5.6 °C 29.59 in /  1001.9 hPa Calm   1.2 mph /  1.9 km/h 77 % 0.00 in /  0 mm
10:29 49.0 °F /  9.4 °C 42.1 °F /  5.6 °C 29.59 in /  1001.9 hPa Calm     77 % 0.00 in /  0 mm
10:34 49.1 °F /  9.5 °C 42.5 °F /  5.8 °C 29.60 in /  1002.3 hPa Calm     78 % 0.00 in /  0 mm
10:39 49.3 °F /  9.6 °C 42.4 °F /  5.8 °C 29.61 in /  1002.6 hPa East 0.4 mph /  0.6 km/h 3.5 mph /  5.6 km/h 77 % 0.00 in /  0 mm
10:44 49.4 °F /  9.7 °C 42.1 °F /  5.6 °C 29.62 in /  1002.9 hPa East 0.2 mph /  0.3 km/h 3.0 mph /  4.8 km/h 76 % 0.00 in /  0 mm
10:49 49.4 °F /  9.7 °C 42.1 °F /  5.6 °C 29.62 in /  1002.9 hPa East 0.2 mph /  0.3 km/h 2.3 mph /  3.7 km/h 76 % 0.00 in /  0 mm
10:54 49.5 °F /  9.7 °C 42.2 °F /  5.7 °C 29.62 in /  1002.9 hPa Calm     76 % 0.00 in /  0 mm
10:59 49.7 °F /  9.8 °C 42.4 °F /  5.8 °C 29.62 in /  1002.9 hPa East 0.4 mph /  0.6 km/h 2.3 mph /  3.7 km/h 76 % 0.00 in /  0 mm
11:04 49.9 °F /  9.9 °C 42.6 °F /  5.9 °C 29.61 in /  1002.6 hPa East 0.1 mph /  0.2 km/h 1.2 mph /  1.9 km/h 76 % 0.00 in /  0 mm
11:09 50.3 °F /  10.2 °C 42.7 °F /  5.9 °C 29.60 in /  1002.3 hPa Calm     75 % 0.00 in /  0 mm
11:14 50.6 °F /  10.3 °C 42.6 °F /  5.9 °C 29.61 in /  1002.6 hPa Calm     74 % 0.00 in /  0 mm
11:19 51.0 °F /  10.6 °C 43.4 °F /  6.3 °C 29.61 in /  1002.6 hPa Calm     75 % 0.00 in /  0 mm
11:24 51.5 °F /  10.8 °C 43.5 °F /  6.4 °C 29.61 in /  1002.6 hPa Calm     74 % 0.00 in /  0 mm
11:29 51.8 °F /  11 °C 43.1 °F /  6.2 °C 29.61 in /  1002.6 hPa Calm     72 % 0.00 in /  0 mm
11:34 52.2 °F /  11.2 °C 43.4 °F /  6.3 °C 29.61 in /  1002.6 hPa Calm     72 % 0.00 in /  0 mm
11:39 52.7 °F /  11.5 °C 42.8 °F /  6 °C 29.61 in /  1002.6 hPa East 0.3 mph /  0.5 km/h 1.2 mph /  1.9 km/h 69 % 0.00 in /  0 mm
11:44 53.0 °F /  11.7 °C 42.7 °F /  5.9 °C 29.60 in /  1002.3 hPa East 1.3 mph /  2.1 km/h 2.3 mph /  3.7 km/h 68 % 0.00 in /  0 mm
11:49 53.4 °F /  11.9 °C 43.1 °F /  6.2 °C 29.60 in /  1002.3 hPa East 1.3 mph /  2.1 km/h 3.5 mph /  5.6 km/h 68 % 0.00 in /  0 mm
11:54 53.6 °F /  12 °C 43.3 °F /  6.3 °C 29.59 in /  1001.9 hPa East 0.6 mph /  1 km/h 2.3 mph /  3.7 km/h 68 % 0.00 in /  0 mm
11:59 53.7 °F /  12.1 °C 43.0 °F /  6.1 °C 29.59 in /  1001.9 hPa East 1.5 mph /  2.4 km/h 4.6 mph /  7.4 km/h 67 % 0.00 in /  0 mm
12:04 53.6 °F /  12 °C 42.9 °F /  6.1 °C 29.59 in /  1001.9 hPa East 1.4 mph /  2.3 km/h 3.5 mph /  5.6 km/h 67 % 0.00 in /  0 mm
12:09 53.5 °F /  11.9 °C 42.8 °F /  6 °C 29.59 in /  1001.9 hPa ENE 1.8 mph /  2.9 km/h 2.3 mph /  3.7 km/h 67 % 0.00 in /  0 mm
12:14 53.4 °F /  11.9 °C 42.7 °F /  5.9 °C 29.59 in /  1001.9 hPa ENE 1.3 mph /  2.1 km/h 3.5 mph /  5.6 km/h 67 % 0.00 in /  0 mm
12:20 53.4 °F /  11.9 °C 42.7 °F /  5.9 °C 29.58 in /  1001.6 hPa ENE 0.9 mph /  1.4 km/h 2.3 mph /  3.7 km/h 67 % 0.00 in /  0 mm
12:25 53.3 °F /  11.8 °C 42.2 °F /  5.7 °C 29.58 in /  1001.6 hPa ENE 1.5 mph /  2.4 km/h 3.5 mph /  5.6 km/h 66 % 0.00 in /  0 mm
12:30 53.1 °F /  11.7 °C 42.4 °F /  5.8 °C 29.57 in /  1001.2 hPa Calm   1.2 mph /  1.9 km/h 67 % 0.00 in /  0 mm
12:35 53.0 °F /  11.7 °C 43.1 °F /  6.2 °C 29.57 in /  1001.2 hPa ENE 0.5 mph /  0.8 km/h 3.5 mph /  5.6 km/h 69 % 0.00 in /  0 mm
12:40 52.8 °F /  11.6 °C 42.9 °F /  6.1 °C 29.57 in /  1001.2 hPa ENE 0.4 mph /  0.6 km/h 2.3 mph /  3.7 km/h 69 % 0.00 in /  0 mm
12:45 52.8 °F /  11.6 °C 42.9 °F /  6.1 °C 29.57 in /  1001.2 hPa ENE 0.3 mph /  0.5 km/h 1.2 mph /  1.9 km/h 69 % 0.00 in /  0 mm
12:50 52.8 °F /  11.6 °C 43.7 °F /  6.5 °C 29.55 in /  1000.6 hPa ENE 2.5 mph /  4 km/h 3.0 mph /  4.8 km/h 71 % 0.00 in /  0 mm
12:55 52.7 °F /  11.5 °C 43.6 °F /  6.4 °C 29.55 in /  1000.6 hPa ENE 1.5 mph /  2.4 km/h 4.0 mph /  6.4 km/h 71 % 0.00 in /  0 mm
13:00 52.7 °F /  11.5 °C 43.9 °F /  6.6 °C 29.56 in /  1000.9 hPa ENE 1.4 mph /  2.3 km/h 3.5 mph /  5.6 km/h 72 % 0.00 in /  0 mm
13:05 52.6 °F /  11.4 °C 43.5 °F /  6.4 °C 29.56 in /  1000.9 hPa ENE 1.4 mph /  2.3 km/h 3.5 mph /  5.6 km/h 71 % 0.00 in /  0 mm
13:10 52.5 °F /  11.4 °C 43.4 °F /  6.3 °C 29.56 in /  1000.9 hPa ENE 1.3 mph /  2.1 km/h 3.5 mph /  5.6 km/h 71 % 0.00 in /  0 mm
13:15 52.6 °F /  11.4 °C 43.8 °F /  6.6 °C 29.56 in /  1000.9 hPa ENE 0.7 mph /  1.1 km/h 2.3 mph /  3.7 km/h 72 % 0.00 in /  0 mm
13:20 52.8 °F /  11.6 °C 44.4 °F /  6.9 °C 29.56 in /  1000.9 hPa ENE 1.0 mph /  1.6 km/h 2.3 mph /  3.7 km/h 73 % 0.00 in /  0 mm
13:25 53.3 °F /  11.8 °C 45.9 °F /  7.7 °C 29.55 in /  1000.6 hPa ENE 1.3 mph /  2.1 km/h 3.5 mph /  5.6 km/h 76 % 0.00 in /  0 mm
13:30 53.9 °F /  12.2 °C 45.8 °F /  7.7 °C 29.55 in /  1000.6 hPa East 2.1 mph /  3.4 km/h 4.6 mph /  7.4 km/h 74 % 0.00 in /  0 mm
13:35 54.5 °F /  12.5 °C 46.4 °F /  8 °C 29.55 in /  1000.6 hPa ENE 2.4 mph /  3.9 km/h 4.0 mph /  6.4 km/h 74 % 0.00 in /  0 mm
13:40 54.9 °F /  12.7 °C 46.0 °F /  7.8 °C 29.55 in /  1000.6 hPa ENE 2.2 mph /  3.5 km/h 5.0 mph /  8 km/h 72 % 0.00 in /  0 mm
13:46 55.2 °F /  12.9 °C 45.2 °F /  7.3 °C 29.54 in /  1000.2 hPa NE 2.4 mph /  3.9 km/h 3.5 mph /  5.6 km/h 69 % 0.00 in /  0 mm
13:51 55.4 °F /  13 °C 45.0 °F /  7.2 °C 29.55 in /  1000.6 hPa ENE 2.3 mph /  3.7 km/h 3.5 mph /  5.6 km/h 68 % 0.00 in /  0 mm
13:56 55.3 °F /  12.9 °C 45.3 °F /  7.4 °C 29.55 in /  1000.6 hPa ENE 1.0 mph /  1.6 km/h 4.0 mph /  6.4 km/h 69 % 0.00 in /  0 mm
14:01 55.2 °F /  12.9 °C 45.2 °F /  7.3 °C 29.55 in /  1000.6 hPa ENE 1.4 mph /  2.3 km/h 3.5 mph /  5.6 km/h 69 % 0.00 in /  0 mm
14:06 54.9 °F /  12.7 °C 44.9 °F /  7.2 °C 29.55 in /  1000.6 hPa East 1.2 mph /  1.9 km/h 2.3 mph /  3.7 km/h 69 % 0.00 in /  0 mm
14:11 54.5 °F /  12.5 °C 44.5 °F /  6.9 °C 29.54 in /  1000.2 hPa Calm     69 % 0.00 in /  0 mm
14:16 54.3 °F /  12.4 °C 44.7 °F /  7.1 °C 29.54 in /  1000.2 hPa East 0.2 mph /  0.3 km/h 1.2 mph /  1.9 km/h 70 % 0.00 in /  0 mm
14:21 54.2 °F /  12.3 °C 44.6 °F /  7 °C 29.54 in /  1000.2 hPa ENE 1.8 mph /  2.9 km/h 4.0 mph /  6.4 km/h 70 % 0.00 in /  0 mm
14:26 53.9 °F /  12.2 °C 44.0 °F /  6.7 °C 29.54 in /  1000.2 hPa ENE 0.5 mph /  0.8 km/h 2.3 mph /  3.7 km/h 69 % 0.00 in /  0 mm
14:31 53.7 °F /  12.1 °C 44.1 °F /  6.7 °C 29.54 in /  1000.2 hPa ENE 1.2 mph /  1.9 km/h 3.5 mph /  5.6 km/h 70 % 0.00 in /  0 mm
14:36 53.4 °F /  11.9 °C 43.9 °F /  6.6 °C 29.54 in /  1000.2 hPa ENE 1.3 mph /  2.1 km/h 3.5 mph /  5.6 km/h 70 % 0.00 in /  0 mm
14:41 53.2 °F /  11.8 °C 43.7 °F /  6.5 °C 29.54 in /  1000.2 hPa ENE 2.0 mph /  3.2 km/h 4.0 mph /  6.4 km/h 70 % 0.00 in /  0 mm
14:46 53.0 °F /  11.7 °C 43.8 °F /  6.6 °C 29.54 in /  1000.2 hPa ENE 0.7 mph /  1.1 km/h 2.3 mph /  3.7 km/h 71 % 0.00 in /  0 mm
14:51 52.9 °F /  11.6 °C 44.1 °F /  6.7 °C 29.54 in /  1000.2 hPa ENE 0.5 mph /  0.8 km/h 2.0 mph /  3.2 km/h 72 % 0.00 in /  0 mm
14:56 52.9 °F /  11.6 °C 44.1 °F /  6.7 °C 29.53 in /  999.9 hPa ENE 0.9 mph /  1.4 km/h 3.5 mph /  5.6 km/h 72 % 0.00 in /  0 mm
15:01 52.8 °F /  11.6 °C 44.0 °F /  6.7 °C 29.53 in /  999.9 hPa ENE 2.0 mph /  3.2 km/h 3.5 mph /  5.6 km/h 72 % 0.00 in /  0 mm
15:06 52.6 °F /  11.4 °C 43.8 °F /  6.6 °C 29.53 in /  999.9 hPa ENE 2.9 mph /  4.7 km/h 4.6 mph /  7.4 km/h 72 % 0.00 in /  0 mm
15:11 52.5 °F /  11.4 °C 43.7 °F /  6.5 °C 29.52 in /  999.5 hPa ENE 1.6 mph /  2.6 km/h 3.5 mph /  5.6 km/h 72 % 0.00 in /  0 mm
15:16 52.3 °F /  11.3 °C 43.5 °F /  6.4 °C 29.53 in /  999.9 hPa ENE 2.8 mph /  4.5 km/h 3.5 mph /  5.6 km/h 72 % 0.00 in /  0 mm
15:21 52.2 °F /  11.2 °C 43.8 °F /  6.6 °C 29.53 in /  999.9 hPa ENE 1.7 mph /  2.7 km/h 3.0 mph /  4.8 km/h 73 % 0.00 in /  0 mm
15:26 52.2 °F /  11.2 °C 43.4 °F /  6.3 °C 29.53 in /  999.9 hPa NE 2.0 mph /  3.2 km/h 3.5 mph /  5.6 km/h 72 % 0.00 in /  0 mm
15:32 52.1 °F /  11.2 °C 43.3 °F /  6.3 °C 29.52 in /  999.5 hPa Calm     72 % 0.00 in /  0 mm
15:37 52.1 °F /  11.2 °C 43.3 °F /  6.3 °C 29.52 in /  999.5 hPa ENE 0.5 mph /  0.8 km/h 2.3 mph /  3.7 km/h 72 % 0.00 in /  0 mm
15:42 52.0 °F /  11.1 °C 43.6 °F /  6.4 °C 29.52 in /  999.5 hPa Calm     73 % 0.00 in /  0 mm
15:47 52.0 °F /  11.1 °C 44.0 °F /  6.7 °C 29.53 in /  999.9 hPa ENE 0.2 mph /  0.3 km/h 3.5 mph /  5.6 km/h 74 % 0.00 in /  0 mm
15:52 52.0 °F /  11.1 °C 44.0 °F /  6.7 °C 29.52 in /  999.5 hPa ENE 0.3 mph /  0.5 km/h 2.3 mph /  3.7 km/h 74 % 0.00 in /  0 mm
15:57 52.0 °F /  11.1 °C 44.3 °F /  6.8 °C 29.51 in /  999.2 hPa Calm     75 % 0.00 in /  0 mm
16:02 52.3 °F /  11.3 °C 44.6 °F /  7 °C 29.52 in /  999.5 hPa ENE 0.4 mph /  0.6 km/h 2.3 mph /  3.7 km/h 75 % 0.00 in /  0 mm
16:07 52.4 °F /  11.3 °C 45.1 °F /  7.3 °C 29.51 in /  999.2 hPa ENE 2.0 mph /  3.2 km/h 3.5 mph /  5.6 km/h 76 % 0.00 in /  0 mm
16:12 52.8 °F /  11.6 °C 45.1 °F /  7.3 °C 29.51 in /  999.2 hPa East 1.6 mph /  2.6 km/h 4.6 mph /  7.4 km/h 75 % 0.00 in /  0 mm
16:17 53.1 °F /  11.7 °C 45.0 °F /  7.2 °C 29.50 in /  998.9 hPa East 3.5 mph /  5.6 km/h 4.6 mph /  7.4 km/h 74 % 0.00 in /  0 mm
16:22 53.2 °F /  11.8 °C 44.8 °F /  7.1 °C 29.50 in /  998.9 hPa ESE 3.4 mph /  5.5 km/h 6.0 mph /  9.7 km/h 73 % 0.00 in /  0 mm
16:27 52.9 °F /  11.6 °C 43.7 °F /  6.5 °C 29.49 in /  998.5 hPa ENE 3.2 mph /  5.1 km/h 4.0 mph /  6.4 km/h 71 % 0.00 in /  0 mm
16:33 52.4 °F /  11.3 °C 44.0 °F /  6.7 °C 29.48 in /  998.2 hPa ENE 2.2 mph /  3.5 km/h 3.5 mph /  5.6 km/h 73 % 0.00 in /  0 mm
16:38 52.0 °F /  11.1 °C 43.3 °F /  6.3 °C 29.48 in /  998.2 hPa ENE 3.1 mph /  5 km/h 4.6 mph /  7.4 km/h 72 % 0.00 in /  0 mm
16:43 51.4 °F /  10.8 °C 43.0 °F /  6.1 °C 29.48 in /  998.2 hPa ENE 2.6 mph /  4.2 km/h 3.5 mph /  5.6 km/h 73 % 0.00 in /  0 mm
16:48 51.0 °F /  10.6 °C 43.0 °F /  6.1 °C 29.48 in /  998.2 hPa ENE 1.1 mph /  1.8 km/h 3.5 mph /  5.6 km/h 74 % 0.00 in /  0 mm
16:53 50.7 °F /  10.4 °C 42.7 °F /  5.9 °C 29.47 in /  997.9 hPa ENE 2.6 mph /  4.2 km/h 3.5 mph /  5.6 km/h 74 % 0.00 in /  0 mm
16:58 50.1 °F /  10.1 °C 42.5 °F /  5.8 °C 29.48 in /  998.2 hPa NE 0.3 mph /  0.5 km/h 2.3 mph /  3.7 km/h 75 % 0.00 in /  0 mm
17:03 49.9 °F /  9.9 °C 42.6 °F /  5.9 °C 29.48 in /  998.2 hPa NE 1.8 mph /  2.9 km/h 3.5 mph /  5.6 km/h 76 % 0.00 in /  0 mm
17:08 49.6 °F /  9.8 °C 42.3 °F /  5.7 °C 29.47 in /  997.9 hPa NE 1.2 mph /  1.9 km/h 3.5 mph /  5.6 km/h 76 % 0.00 in /  0 mm
17:13 49.3 °F /  9.6 °C 42.4 °F /  5.8 °C 29.47 in /  997.9 hPa Calm     77 % 0.00 in /  0 mm
17:18 49.1 °F /  9.5 °C 42.2 °F /  5.7 °C 29.47 in /  997.9 hPa NE 0.3 mph /  0.5 km/h 2.3 mph /  3.7 km/h 77 % 0.00 in /  0 mm
17:23 48.9 °F /  9.4 °C 42.0 °F /  5.6 °C 29.48 in /  998.2 hPa NE 0.7 mph /  1.1 km/h 1.2 mph /  1.9 km/h 77 % 0.00 in /  0 mm
17:28 48.8 °F /  9.3 °C 41.9 °F /  5.5 °C 29.47 in /  997.9 hPa Calm     77 % 0.00 in /  0 mm
17:33 48.7 °F /  9.3 °C 42.1 °F /  5.6 °C 29.47 in /  997.9 hPa Calm     78 % 0.00 in /  0 mm
17:38 48.5 °F /  9.2 °C 42.0 °F /  5.6 °C 29.46 in /  997.5 hPa ESE 1.2 mph /  1.9 km/h 2.3 mph /  3.7 km/h 78 % 0.00 in /  0 mm
17:43 48.5 °F /  9.2 °C 42.0 °F /  5.6 °C 29.46 in /  997.5 hPa ENE 0.3 mph /  0.5 km/h 2.3 mph /  3.7 km/h 78 % 0.00 in /  0 mm
17:48 48.4 °F /  9.1 °C 42.2 °F /  5.7 °C 29.46 in /  997.5 hPa East 1.5 mph /  2.4 km/h 4.6 mph /  7.4 km/h 79 % 0.00 in /  0 mm
17:53 48.5 °F /  9.2 °C 42.6 °F /  5.9 °C 29.45 in /  997.2 hPa ENE 0.6 mph /  1 km/h 2.3 mph /  3.7 km/h 80 % 0.00 in /  0 mm
17:58 48.6 °F /  9.2 °C 42.4 °F /  5.8 °C 29.45 in /  997.2 hPa ENE 1.1 mph /  1.8 km/h 3.5 mph /  5.6 km/h 79 % 0.00 in /  0 mm
18:03 48.7 °F /  9.3 °C 42.5 °F /  5.8 °C 29.45 in /  997.2 hPa East 2.8 mph /  4.5 km/h 7.0 mph /  11.3 km/h 79 % 0.00 in /  0 mm
18:08 49.0 °F /  9.4 °C 42.8 °F /  6 °C 29.44 in /  996.8 hPa ENE 2.6 mph /  4.2 km/h 6.9 mph /  11.1 km/h 79 % 0.00 in /  0 mm
18:13 49.3 °F /  9.6 °C 42.7 °F /  5.9 °C 29.44 in /  996.8 hPa ENE 3.0 mph /  4.8 km/h 4.6 mph /  7.4 km/h 78 % 0.00 in /  0 mm
18:19 49.4 °F /  9.7 °C 42.5 °F /  5.8 °C 29.44 in /  996.8 hPa ENE 3.2 mph /  5.1 km/h 4.6 mph /  7.4 km/h 77 % 0.00 in /  0 mm
18:24 49.2 °F /  9.6 °C 42.3 °F /  5.7 °C 29.44 in /  996.8 hPa ENE 2.6 mph /  4.2 km/h 3.5 mph /  5.6 km/h 77 % 0.00 in /  0 mm
18:29 49.1 °F /  9.5 °C 42.2 °F /  5.7 °C 29.44 in /  996.8 hPa East 2.3 mph /  3.7 km/h 5.8 mph /  9.3 km/h 77 % 0.00 in /  0 mm
18:34 49.1 °F /  9.5 °C 42.5 °F /  5.8 °C 29.44 in /  996.8 hPa East 1.0 mph /  1.6 km/h 3.5 mph /  5.6 km/h 78 % 0.00 in /  0 mm
18:39 49.2 °F /  9.6 °C 43.0 °F /  6.1 °C 29.43 in /  996.5 hPa East 0.3 mph /  0.5 km/h 3.5 mph /  5.6 km/h 79 % 0.00 in /  0 mm
18:44 49.5 °F /  9.7 °C 42.6 °F /  5.9 °C 29.43 in /  996.5 hPa ESE 1.5 mph /  2.4 km/h 5.8 mph /  9.3 km/h 77 % 0.00 in /  0 mm
18:49 50.0 °F /  10 °C 42.7 °F /  5.9 °C 29.43 in /  996.5 hPa East 3.9 mph /  6.3 km/h 7.0 mph /  11.3 km/h 76 % 0.00 in /  0 mm
18:54 50.8 °F /  10.4 °C 43.2 °F /  6.2 °C 29.43 in /  996.5 hPa ESE 3.1 mph /  5 km/h 4.6 mph /  7.4 km/h 75 % 0.00 in /  0 mm
18:59 51.2 °F /  10.7 °C 43.2 °F /  6.2 °C 29.43 in /  996.5 hPa East 1.0 mph /  1.6 km/h 3.5 mph /  5.6 km/h 74 % 0.00 in /  0 mm
19:04 51.4 °F /  10.8 °C 43.0 °F /  6.1 °C 29.42 in /  996.2 hPa ESE 2.8 mph /  4.5 km/h 6.9 mph /  11.1 km/h 73 % 0.00 in /  0 mm
19:09 51.6 °F /  10.9 °C 43.2 °F /  6.2 °C 29.42 in /  996.2 hPa East 3.1 mph /  5 km/h 4.6 mph /  7.4 km/h 73 % 0.00 in /  0 mm
19:14 51.8 °F /  11 °C 43.4 °F /  6.3 °C 29.41 in /  995.8 hPa East 3.7 mph /  6 km/h 6.9 mph /  11.1 km/h 73 % 0.00 in /  0 mm
19:19 51.9 °F /  11.1 °C 43.5 °F /  6.4 °C 29.41 in /  995.8 hPa East 3.4 mph /  5.5 km/h 4.6 mph /  7.4 km/h 73 % 0.00 in /  0 mm
19:24 51.9 °F /  11.1 °C 43.5 °F /  6.4 °C 29.41 in /  995.8 hPa East 2.0 mph /  3.2 km/h 3.5 mph /  5.6 km/h 73 % 0.00 in /  0 mm
19:29 51.7 °F /  10.9 °C 43.0 °F /  6.1 °C 29.41 in /  995.8 hPa NE 2.6 mph /  4.2 km/h 5.0 mph /  8 km/h 72 % 0.00 in /  0 mm
19:34 51.0 °F /  10.6 °C 42.3 °F /  5.7 °C 29.40 in /  995.5 hPa ENE 3.2 mph /  5.1 km/h 5.0 mph /  8 km/h 72 % 0.00 in /  0 mm
19:39 50.2 °F /  10.1 °C 41.9 °F /  5.5 °C 29.40 in /  995.5 hPa ENE 4.5 mph /  7.2 km/h 6.9 mph /  11.1 km/h 73 % 0.00 in /  0 mm
19:44 49.3 °F /  9.6 °C 41.4 °F /  5.2 °C 29.40 in /  995.5 hPa ENE 2.8 mph /  4.5 km/h 3.5 mph /  5.6 km/h 74 % 0.00 in /  0 mm
19:49 48.7 °F /  9.3 °C 41.5 °F /  5.3 °C 29.40 in /  995.5 hPa ENE 2.3 mph /  3.7 km/h 4.0 mph /  6.4 km/h 76 % 0.00 in /  0 mm
19:54 47.9 °F /  8.8 °C 41.0 °F /  5 °C 29.40 in /  995.5 hPa ENE 4.2 mph /  6.8 km/h 8.1 mph /  13 km/h 77 % 0.00 in /  0 mm
19:59 47.0 °F /  8.3 °C 40.5 °F /  4.7 °C 29.39 in /  995.1 hPa ENE 6.0 mph /  9.7 km/h 9.0 mph /  14.5 km/h 78 % 0.00 in /  0 mm
20:04 46.0 °F /  7.8 °C 40.2 °F /  4.6 °C 29.40 in /  995.5 hPa ENE 4.8 mph /  7.7 km/h 5.0 mph /  8 km/h 80 % 0.00 in /  0 mm
20:10 45.3 °F /  7.4 °C 40.1 °F /  4.5 °C 29.39 in /  995.1 hPa East 5.4 mph /  8.7 km/h 6.9 mph /  11.1 km/h 82 % 0.00 in /  0 mm
20:15 44.8 °F /  7.1 °C 40.0 °F /  4.4 °C 29.39 in /  995.1 hPa East 3.9 mph /  6.3 km/h 5.8 mph /  9.3 km/h 83 % 0.00 in /  0 mm
20:20 44.6 °F /  7 °C 40.1 °F /  4.5 °C 29.39 in /  995.1 hPa ENE 2.2 mph /  3.5 km/h 4.0 mph /  6.4 km/h 84 % 0.00 in /  0 mm
20:25 44.4 °F /  6.9 °C 40.2 °F /  4.6 °C 29.39 in /  995.1 hPa ENE 3.9 mph /  6.3 km/h 5.8 mph /  9.3 km/h 85 % 0.00 in /  0 mm
20:30 44.3 °F /  6.8 °C 40.1 °F /  4.5 °C 29.39 in /  995.1 hPa ENE 5.1 mph /  8.2 km/h 8.1 mph /  13 km/h 85 % 0.00 in /  0 mm
20:35 44.1 °F /  6.7 °C 40.2 °F /  4.6 °C 29.38 in /  994.8 hPa ENE 6.0 mph /  9.7 km/h 10.4 mph /  16.7 km/h 86 % 0.00 in /  0 mm
20:40 44.0 °F /  6.7 °C 40.1 °F /  4.5 °C 29.38 in /  994.8 hPa East 3.8 mph /  6.1 km/h 5.0 mph /  8 km/h 86 % 0.00 in /  0 mm
20:45 44.0 °F /  6.7 °C 40.4 °F /  4.7 °C 29.38 in /  994.8 hPa ENE 7.3 mph /  11.7 km/h 9.2 mph /  14.8 km/h 87 % 0.00 in /  0 mm
20:50 43.8 °F /  6.6 °C 40.2 °F /  4.6 °C 29.38 in /  994.8 hPa East 5.1 mph /  8.2 km/h 6.9 mph /  11.1 km/h 87 % 0.00 in /  0 mm
20:55 43.5 °F /  6.4 °C 39.9 °F /  4.4 °C 29.37 in /  994.5 hPa East 5.9 mph /  9.5 km/h 6.9 mph /  11.1 km/h 87 % 0.00 in /  0 mm
21:00 43.1 °F /  6.2 °C 39.8 °F /  4.3 °C 29.37 in /  994.5 hPa East 5.5 mph /  8.9 km/h 6.9 mph /  11.1 km/h 88 % 0.00 in /  0 mm
21:05 42.9 °F /  6.1 °C 39.9 °F /  4.4 °C 29.36 in /  994.1 hPa East 6.5 mph /  10.5 km/h 11.5 mph /  18.5 km/h 89 % 0.00 in /  0 mm
21:10 42.7 °F /  5.9 °C 39.7 °F /  4.3 °C 29.36 in /  994.1 hPa East 6.7 mph /  10.8 km/h 8.1 mph /  13 km/h 89 % 0.00 in /  0 mm
21:15 42.6 °F /  5.9 °C 39.9 °F /  4.4 °C 29.36 in /  994.1 hPa East 6.9 mph /  11.1 km/h 11.5 mph /  18.5 km/h 90 % 0.00 in /  0 mm
21:20 42.5 °F /  5.8 °C 39.8 °F /  4.3 °C 29.36 in /  994.1 hPa East 6.3 mph /  10.1 km/h 9.2 mph /  14.8 km/h 90 % 0.00 in /  0 mm
21:25 42.6 °F /  5.9 °C 40.2 °F /  4.6 °C 29.36 in /  994.1 hPa East 6.2 mph /  10 km/h 8.1 mph /  13 km/h 91 % 0.00 in /  0 mm
21:30 42.7 °F /  5.9 °C 40.3 °F /  4.6 °C 29.35 in /  993.8 hPa East 6.5 mph /  10.5 km/h 8.1 mph /  13 km/h 91 % 0.00 in /  0 mm
21:35 42.9 °F /  6.1 °C 40.5 °F /  4.7 °C 29.35 in /  993.8 hPa ENE 5.5 mph /  8.9 km/h 9.0 mph /  14.5 km/h 91 % 0.00 in /  0 mm
21:40 43.0 °F /  6.1 °C 40.6 °F /  4.8 °C 29.35 in /  993.8 hPa East 6.6 mph /  10.6 km/h 8.1 mph /  13 km/h 91 % 0.00 in /  0 mm
21:45 43.1 °F /  6.2 °C 40.7 °F /  4.8 °C 29.35 in /  993.8 hPa ENE 5.3 mph /  8.5 km/h 9.2 mph /  14.8 km/h 91 % 0.00 in /  0 mm
21:50 43.0 °F /  6.1 °C 40.6 °F /  4.8 °C 29.35 in /  993.8 hPa East 4.8 mph /  7.7 km/h 8.1 mph /  13 km/h 91 % 0.00 in /  0 mm
21:55 42.9 °F /  6.1 °C 40.5 °F /  4.7 °C 29.35 in /  993.8 hPa ENE 7.3 mph /  11.7 km/h 9.2 mph /  14.8 km/h 91 % 0.00 in /  0 mm
22:00 42.8 °F /  6 °C 40.4 °F /  4.7 °C 29.35 in /  993.8 hPa ENE 7.2 mph /  11.6 km/h 9.2 mph /  14.8 km/h 91 % 0.00 in /  0 mm
22:05 42.7 °F /  5.9 °C 40.3 °F /  4.6 °C 29.34 in /  993.5 hPa ENE 6.7 mph /  10.8 km/h 10.4 mph /  16.7 km/h 91 % 0.00 in /  0 mm
22:10 42.7 °F /  5.9 °C 40.5 °F /  4.7 °C 29.34 in /  993.5 hPa ENE 6.8 mph /  10.9 km/h 11.5 mph /  18.5 km/h 92 % 0.00 in /  0 mm
22:15 42.7 °F /  5.9 °C 40.5 °F /  4.7 °C 29.35 in /  993.8 hPa ENE 8.7 mph /  14 km/h 12.7 mph /  20.4 km/h 92 % 0.00 in /  0 mm
22:20 42.7 °F /  5.9 °C 40.5 °F /  4.7 °C 29.35 in /  993.8 hPa ENE 8.0 mph /  12.9 km/h 13.0 mph /  20.9 km/h 92 % 0.00 in /  0 mm
22:25 42.7 °F /  5.9 °C 40.8 °F /  4.9 °C 29.35 in /  993.8 hPa ENE 8.0 mph /  12.9 km/h 12.0 mph /  19.3 km/h 93 % 0.00 in /  0 mm
22:30 42.7 °F /  5.9 °C 40.8 °F /  4.9 °C 29.35 in /  993.8 hPa East 8.8 mph /  14.2 km/h 11.0 mph /  17.7 km/h 93 % 0.00 in /  0 mm
22:35 42.7 °F /  5.9 °C 40.8 °F /  4.9 °C 29.35 in /  993.8 hPa ENE 9.0 mph /  14.5 km/h 13.0 mph /  20.9 km/h 93 % 0.00 in /  0 mm
22:40 42.7 °F /  5.9 °C 40.8 °F /  4.9 °C 29.35 in /  993.8 hPa ENE 9.0 mph /  14.5 km/h 13.0 mph /  20.9 km/h 93 % 0.00 in /  0 mm
22:45 42.6 °F /  5.9 °C 40.7 °F /  4.8 °C 29.34 in /  993.5 hPa East 10.0 mph /  16.1 km/h 14.0 mph /  22.5 km/h 93 % 0.00 in /  0 mm
22:50 42.6 °F /  5.9 °C 40.7 °F /  4.8 °C 29.34 in /  993.5 hPa East 10.0 mph /  16.1 km/h 15.0 mph /  24.1 km/h 93 % 0.00 in /  0 mm
22:51 42.6 °F /  5.9 °C 40.7 °F /  4.8 °C 29.34 in /  993.5 hPa East 10.0 mph /  16.1 km/h 11.5 mph /  18.5 km/h 93 % 0.02 in /  0.51 mm
22:56 42.6 °F /  5.9 °C 40.7 °F /  4.8 °C 29.34 in /  993.5 hPa ENE 10.9 mph /  17.5 km/h 15.0 mph /  24.1 km/h 93 % 0.02 in /  0.51 mm
23:01 42.5 °F /  5.8 °C 40.6 °F /  4.8 °C 29.33 in /  993.1 hPa East 11.7 mph /  18.8 km/h 15.0 mph /  24.1 km/h 93 % 0.03 in /  0.76 mm
23:06 42.5 °F /  5.8 °C 40.6 °F /  4.8 °C 29.33 in /  993.1 hPa ENE 10.7 mph /  17.2 km/h 15.0 mph /  24.1 km/h 93 % 0.03 in /  0.76 mm
23:11 42.4 °F /  5.8 °C 40.5 °F /  4.7 °C 29.33 in /  993.1 hPa East 11.1 mph /  17.9 km/h 12.7 mph /  20.4 km/h 93 % 0.04 in /  1.02 mm
23:16 42.3 °F /  5.7 °C 40.4 °F /  4.7 °C 29.32 in /  992.8 hPa ENE 10.2 mph /  16.4 km/h 11.5 mph /  18.5 km/h 93 % 0.05 in /  1.27 mm
23:21 42.2 °F /  5.7 °C 40.3 °F /  4.6 °C 29.32 in /  992.8 hPa ENE 10.4 mph /  16.7 km/h 12.7 mph /  20.4 km/h 93 % 0.06 in /  1.52 mm
23:26 42.0 °F /  5.6 °C 40.1 °F /  4.5 °C 29.31 in /  992.4 hPa ENE 9.4 mph /  15.1 km/h 13.8 mph /  22.2 km/h 93 % 0.06 in /  1.52 mm
23:31 41.9 °F /  5.5 °C 40.0 °F /  4.4 °C 29.31 in /  992.4 hPa East 9.7 mph /  15.6 km/h 12.7 mph /  20.4 km/h 93 % 0.07 in /  1.78 mm
23:36 41.8 °F /  5.4 °C 40.2 °F /  4.6 °C 29.30 in /  992.1 hPa East 9.7 mph /  15.6 km/h 11.5 mph /  18.5 km/h 94 % 0.06 in /  1.52 mm
23:41 41.8 °F /  5.4 °C 40.2 °F /  4.6 °C 29.31 in /  992.4 hPa East 10.1 mph /  16.3 km/h 11.5 mph /  18.5 km/h 94 % 0.06 in /  1.52 mm
23:47 41.8 °F /  5.4 °C 40.2 °F /  4.6 °C 29.30 in /  992.1 hPa ENE 10.6 mph /  17.1 km/h 12.7 mph /  20.4 km/h 94 % 0.07 in /  1.78 mm
23:52 41.7 °F /  5.4 °C 40.1 °F /  4.5 °C 29.30 in /  992.1 hPa East 10.8 mph /  17.4 km/h 15.0 mph /  24.1 km/h 94 % 0.06 in /  1.52 mm
23:57 41.8 °F /  5.4 °C 40.2 °F /  4.6 °C 29.30 in /  992.1 hPa East 10.2 mph /  16.4 km/h 13.8 mph /  22.2 km/h 94 % 0.06 in /  1.52 mm
Crab Meadow Weather
Compliments of Weather Underground - 3 mb

Script developed by  Jim McMurry - jmcmurry@mwt.net Adapted for the template by  Wim van der Kuil - Leuven-Template.eu

Extremes: Currently the driest state is Nevada with an annual rainfall of only nine inches.